Orange8 — JL6278 — position and weather

sailwx.info

Track history (hours):
 
Tides and Currents Weather Stations Pressure Air Temp Water Temp Dewpoint Dewpoint Depression Visibility Wind Speed Wind Dir Waves Ship Positions

Orange8

Last reported at 2014-Aug-20 14:33 UTC. Time now 2014-Aug-21 12:14 UTC.
Position N 34°38' E 134°59'.

Length 164 m; draft 5 m.

Type: Passenger vessel. MMSI: 431501603.

Date/timePositionNaut miles runAvg speedWind from/ knotsBaromVisibWave heightAir tempDewpointWater temp
2014-Aug-20 14:33N 34°38' E 134°59'1717.2
2014-Aug-20 13:33N 34°37' E 135°19'5 4.9
2014-Aug-20 12:29N 34°37' E 135°26'0 0.0
2014-Aug-20 11:29N 34°37' E 135°26'0 0.0
2014-Aug-20 10:29N 34°37' E 135°26'0 0.0
2014-Aug-20 09:29N 34°37' E 135°26'0 0.0
2014-Aug-20 08:17N 34°37' E 135°26'0 0.0
2014-Aug-20 07:29N 34°37' E 135°26'0 0.0
2014-Aug-20 06:29N 34°37' E 135°26'0 0.0
2014-Aug-20 05:29N 34°37' E 135°26'0 0.0
2014-Aug-20 04:29N 34°37' E 135°26'0 0.0
2014-Aug-20 03:29N 34°37' E 135°26'0 0.0
2014-Aug-20 02:29N 34°37' E 135°26'0 0.0
2014-Aug-20 01:29N 34°37' E 135°26'0 0.0
2014-Aug-20 00:29N 34°37' E 135°26'0 0.0
2014-Aug-19 23:23N 34°37' E 135°26'0 0.0
2014-Aug-19 22:23N 34°37' E 135°26'0 0.0
2014-Aug-19 21:17N 34°37' E 135°26'6 7.7
2014-Aug-19 20:33N 34°36' E 135°19'1818.2
2014-Aug-19 19:33N 34°36' E 134°57'1 0.0
2014-Aug-18 14:33N 34°37' E 134°58'1817.7
2014-Aug-18 13:33N 34°37' E 135°20'5 4.9
2014-Aug-18 12:29N 34°37' E 135°26'0 0.0
2014-Aug-18 11:29N 34°37' E 135°26'0 0.0
2014-Aug-18 10:29N 34°37' E 135°26'0 0.0
2014-Aug-18 09:29N 34°37' E 135°26'0 0.0
2014-Aug-18 08:29N 34°37' E 135°26'0 0.0
2014-Aug-18 07:29N 34°37' E 135°26'0 0.0
2014-Aug-18 06:29N 34°37' E 135°26'0 0.0
2014-Aug-18 05:29N 34°37' E 135°26'0 0.0
2014-Aug-18 04:29N 34°37' E 135°26'0 0.0
2014-Aug-18 03:29N 34°37' E 135°26'0 0.0
2014-Aug-18 02:29N 34°37' E 135°26'0 0.0
2014-Aug-18 01:29N 34°37' E 135°26'0 0.0
2014-Aug-18 00:11N 34°37' E 135°26'36 1.1
2014-Aug-16 15:12N 34°32' E 134°43'1320.1
2014-Aug-16 14:33N 34°37' E 134°57'1918.6
2014-Aug-16 13:33N 34°37' E 135°20'5 5.0
2014-Aug-16 12:32N 34°37' E 135°26'0 0.0
2014-Aug-16 11:32N 34°37' E 135°26'0 0.0
2014-Aug-16 10:33N 34°37' E 135°26'0 0.0
2014-Aug-16 09:26N 34°37' E 135°26'0 0.0
2014-Aug-16 08:32N 34°37' E 135°26'0 0.0
2014-Aug-16 07:32N 34°37' E 135°26'0 0.0
2014-Aug-16 06:32N 34°37' E 135°26'0 0.0
2014-Aug-16 05:32N 34°37' E 135°26'0 0.0
2014-Aug-16 04:32N 34°37' E 135°26'0 0.0
2014-Aug-16 03:32N 34°37' E 135°26'0 0.0
2014-Aug-16 02:32N 34°37' E 135°26'0 0.0
2014-Aug-16 01:32N 34°37' E 135°26'0 0.0
2014-Aug-16 00:32N 34°37' E 135°26'0 0.0
2014-Aug-15 23:32N 34°37' E 135°26'0 0.0
2014-Aug-15 22:20N 34°37' E 135°26'0 0.0
2014-Aug-15 21:20N 34°37' E 135°26'5 6.4
2014-Aug-15 20:33N 34°36' E 135°20'1918.8
2014-Aug-15 19:33N 34°36' E 134°57'1 0.0
2014-Aug-14 14:33N 34°37' E 134°57'1918.7
2014-Aug-14 13:33N 34°37' E 135°19'5 5.1
2014-Aug-14 12:31N 34°37' E 135°26'0 0.0
2014-Aug-14 11:31N 34°37' E 135°26'0 0.0
2014-Aug-14 10:31N 34°37' E 135°26'0 0.0
2014-Aug-14 09:31N 34°37' E 135°26'0 0.0
2014-Aug-14 08:31N 34°37' E 135°26'0 0.0
2014-Aug-14 07:31N 34°37' E 135°26'0 0.0
2014-Aug-14 06:31N 34°37' E 135°26'0 0.0
2014-Aug-14 05:25N 34°37' E 135°26'0 0.0
2014-Aug-14 04:31N 34°37' E 135°26'0 0.0
2014-Aug-14 03:31N 34°37' E 135°26'0 0.0
2014-Aug-14 02:31N 34°37' E 135°26'0 0.0
2014-Aug-14 01:31N 34°37' E 135°26'0 0.0
2014-Aug-14 00:31N 34°37' E 135°26'0 0.0
2014-Aug-13 23:25N 34°37' E 135°26'0 0.0
2014-Aug-13 22:31N 34°37' E 135°26'0 0.0
2014-Aug-13 21:25N 34°37' E 135°26'5 5.8
2014-Aug-13 20:34N 34°36' E 135°20'1818.0
2014-Aug-13 19:33N 34°37' E 134°58'2 0.1
2014-Aug-12 14:29N 34°38' E 134°60'1718.6
2014-Aug-12 13:34N 34°37' E 135°21'4 4.0
2014-Aug-12 12:29N 34°37' E 135°26'0 0.0
2014-Aug-12 11:29N 34°37' E 135°26'0 0.0
2014-Aug-12 10:29N 34°37' E 135°26'0 0.0
2014-Aug-12 09:29N 34°37' E 135°26'0 0.0
2014-Aug-12 08:17N 34°37' E 135°26'0 0.0
2014-Aug-12 07:31N 34°37' E 135°26'0 0.0
2014-Aug-12 06:31N 34°37' E 135°26'0 0.0
2014-Aug-12 05:31N 34°37' E 135°26'0 0.0
2014-Aug-12 04:25N 34°37' E 135°26'0 0.0
2014-Aug-12 03:31N 34°37' E 135°26'0 0.0
2014-Aug-12 02:31N 34°37' E 135°26'0 0.0
2014-Aug-12 01:31N 34°37' E 135°26'0 0.0
2014-Aug-12 00:25N 34°37' E 135°26'0 0.0
2014-Aug-11 23:31N 34°37' E 135°26'0 0.0
2014-Aug-11 22:31N 34°37' E 135°26'0 0.0
2014-Aug-11 21:25N 34°37' E 135°26'5 5.6
2014-Aug-11 20:33N 34°36' E 135°20'1717.2
2014-Aug-11 19:33N 34°37' E 134°59'3 0.1
2014-Aug-10 14:34N 34°37' E 134°56'  
Track history (hours):
 
Tides and Currents Weather Stations Pressure Air Temp Water Temp Dewpoint Dewpoint Depression Visibility Wind Speed Wind Dir Waves Ship Positions

Orange8

Last reported at 2014-Aug-20 14:33 UTC. Time now 2014-Aug-21 12:14 UTC.
Position N 34°38' E 134°59'.

Length 164 m; draft 5 m.

Type: Passenger vessel. MMSI: 431501603.

Date/timePositionNaut miles runAvg speedWind from/ knotsBaromVisibWave heightAir tempDewpointWater temp
2014-Aug-20 14:33N 34°38' E 134°59'1717.2
2014-Aug-20 13:33N 34°37' E 135°19'5 4.9
2014-Aug-20 12:29N 34°37' E 135°26'0 0.0
2014-Aug-20 11:29N 34°37' E 135°26'0 0.0
2014-Aug-20 10:29N 34°37' E 135°26'0 0.0
2014-Aug-20 09:29N 34°37' E 135°26'0 0.0
2014-Aug-20 08:17N 34°37' E 135°26'0 0.0
2014-Aug-20 07:29N 34°37' E 135°26'0 0.0
2014-Aug-20 06:29N 34°37' E 135°26'0 0.0
2014-Aug-20 05:29N 34°37' E 135°26'0 0.0
2014-Aug-20 04:29N 34°37' E 135°26'0 0.0
2014-Aug-20 03:29N 34°37' E 135°26'0 0.0
2014-Aug-20 02:29N 34°37' E 135°26'0 0.0
2014-Aug-20 01:29N 34°37' E 135°26'0 0.0
2014-Aug-20 00:29N 34°37' E 135°26'0 0.0
2014-Aug-19 23:23N 34°37' E 135°26'0 0.0
2014-Aug-19 22:23N 34°37' E 135°26'0 0.0
2014-Aug-19 21:17N 34°37' E 135°26'6 7.7
2014-Aug-19 20:33N 34°36' E 135°19'1818.2
2014-Aug-19 19:33N 34°36' E 134°57'1 0.0
2014-Aug-18 14:33N 34°37' E 134°58'1817.7
2014-Aug-18 13:33N 34°37' E 135°20'5 4.9
2014-Aug-18 12:29N 34°37' E 135°26'0 0.0
2014-Aug-18 11:29N 34°37' E 135°26'0 0.0
2014-Aug-18 10:29N 34°37' E 135°26'0 0.0
2014-Aug-18 09:29N 34°37' E 135°26'0 0.0
2014-Aug-18 08:29N 34°37' E 135°26'0 0.0
2014-Aug-18 07:29N 34°37' E 135°26'0 0.0
2014-Aug-18 06:29N 34°37' E 135°26'0 0.0
2014-Aug-18 05:29N 34°37' E 135°26'0 0.0
2014-Aug-18 04:29N 34°37' E 135°26'0 0.0
2014-Aug-18 03:29N 34°37' E 135°26'0 0.0
2014-Aug-18 02:29N 34°37' E 135°26'0 0.0
2014-Aug-18 01:29N 34°37' E 135°26'0 0.0
2014-Aug-18 00:11N 34°37' E 135°26'36 1.1
2014-Aug-16 15:12N 34°32' E 134°43'1320.1
2014-Aug-16 14:33N 34°37' E 134°57'1918.6
2014-Aug-16 13:33N 34°37' E 135°20'5 5.0
2014-Aug-16 12:32N 34°37' E 135°26'0 0.0
2014-Aug-16 11:32N 34°37' E 135°26'0 0.0
2014-Aug-16 10:33N 34°37' E 135°26'0 0.0
2014-Aug-16 09:26N 34°37' E 135°26'0 0.0
2014-Aug-16 08:32N 34°37' E 135°26'0 0.0
2014-Aug-16 07:32N 34°37' E 135°26'0 0.0
2014-Aug-16 06:32N 34°37' E 135°26'0 0.0
2014-Aug-16 05:32N 34°37' E 135°26'0 0.0
2014-Aug-16 04:32N 34°37' E 135°26'0 0.0
2014-Aug-16 03:32N 34°37' E 135°26'0 0.0
2014-Aug-16 02:32N 34°37' E 135°26'0 0.0
2014-Aug-16 01:32N 34°37' E 135°26'0 0.0
2014-Aug-16 00:32N 34°37' E 135°26'0 0.0
2014-Aug-15 23:32N 34°37' E 135°26'0 0.0
2014-Aug-15 22:20N 34°37' E 135°26'0 0.0
2014-Aug-15 21:20N 34°37' E 135°26'5 6.4
2014-Aug-15 20:33N 34°36' E 135°20'1918.8
2014-Aug-15 19:33N 34°36' E 134°57'1 0.0
2014-Aug-14 14:33N 34°37' E 134°57'1918.7
2014-Aug-14 13:33N 34°37' E 135°19'5 5.1
2014-Aug-14 12:31N 34°37' E 135°26'0 0.0
2014-Aug-14 11:31N 34°37' E 135°26'0 0.0
2014-Aug-14 10:31N 34°37' E 135°26'0 0.0
2014-Aug-14 09:31N 34°37' E 135°26'0 0.0
2014-Aug-14 08:31N 34°37' E 135°26'0 0.0
2014-Aug-14 07:31N 34°37' E 135°26'0 0.0
2014-Aug-14 06:31N 34°37' E 135°26'0 0.0
2014-Aug-14 05:25N 34°37' E 135°26'0 0.0
2014-Aug-14 04:31N 34°37' E 135°26'0 0.0
2014-Aug-14 03:31N 34°37' E 135°26'0 0.0
2014-Aug-14 02:31N 34°37' E 135°26'0 0.0
2014-Aug-14 01:31N 34°37' E 135°26'0 0.0
2014-Aug-14 00:31N 34°37' E 135°26'0 0.0
2014-Aug-13 23:25N 34°37' E 135°26'0 0.0
2014-Aug-13 22:31N 34°37' E 135°26'0 0.0
2014-Aug-13 21:25N 34°37' E 135°26'5 5.8
2014-Aug-13 20:34N 34°36' E 135°20'1818.0
2014-Aug-13 19:33N 34°37' E 134°58'2 0.1
2014-Aug-12 14:29N 34°38' E 134°60'1718.6
2014-Aug-12 13:34N 34°37' E 135°21'4 4.0
2014-Aug-12 12:29N 34°37' E 135°26'0 0.0
2014-Aug-12 11:29N 34°37' E 135°26'0 0.0
2014-Aug-12 10:29N 34°37' E 135°26'0 0.0
2014-Aug-12 09:29N 34°37' E 135°26'0 0.0
2014-Aug-12 08:17N 34°37' E 135°26'0 0.0
2014-Aug-12 07:31N 34°37' E 135°26'0 0.0
2014-Aug-12 06:31N 34°37' E 135°26'0 0.0
2014-Aug-12 05:31N 34°37' E 135°26'0 0.0
2014-Aug-12 04:25N 34°37' E 135°26'0 0.0
2014-Aug-12 03:31N 34°37' E 135°26'0 0.0
2014-Aug-12 02:31N 34°37' E 135°26'0 0.0
2014-Aug-12 01:31N 34°37' E 135°26'0 0.0
2014-Aug-12 00:25N 34°37' E 135°26'0 0.0
2014-Aug-11 23:31N 34°37' E 135°26'0 0.0
2014-Aug-11 22:31N 34°37' E 135°26'0 0.0
2014-Aug-11 21:25N 34°37' E 135°26'5 5.6
2014-Aug-11 20:33N 34°36' E 135°20'1717.2
2014-Aug-11 19:33N 34°37' E 134°59'3 0.1
2014-Aug-10 14:34N 34°37' E 134°56'  

Dump ship's entire track history